sensor_id;sensor_type;location;lat;lon;timestamp;P1;durP1;ratioP1;P2;durP2;ratioP2
15899;SDS011;8048;50.644;6.184;2023-02-04T00:01:27;15.10;;;5.10;;
15899;SDS011;8048;50.644;6.184;2023-02-04T00:03:53;24.30;;;6.47;;
15899;SDS011;8048;50.644;6.184;2023-02-04T00:06:19;8.77;;;3.10;;
15899;SDS011;8048;50.644;6.184;2023-02-04T00:08:44;11.10;;;3.90;;
15899;SDS011;8048;50.644;6.184;2023-02-04T00:11:10;19.97;;;7.13;;
15899;SDS011;8048;50.644;6.184;2023-02-04T00:13:35;23.43;;;8.90;;
15899;SDS011;8048;50.644;6.184;2023-02-04T00:16:01;10.17;;;4.80;;
15899;SDS011;8048;50.644;6.184;2023-02-04T00:18:27;5.77;;;3.13;;
15899;SDS011;8048;50.644;6.184;2023-02-04T00:20:53;6.97;;;3.90;;
15899;SDS011;8048;50.644;6.184;2023-02-04T00:23:18;7.57;;;3.90;;
15899;SDS011;8048;50.644;6.184;2023-02-04T00:25:44;3.00;;;1.60;;
15899;SDS011;8048;50.644;6.184;2023-02-04T00:28:09;4.23;;;2.43;;
15899;SDS011;8048;50.644;6.184;2023-02-04T00:30:35;12.30;;;4.83;;
15899;SDS011;8048;50.644;6.184;2023-02-04T00:33:01;6.30;;;3.77;;
15899;SDS011;8048;50.644;6.184;2023-02-04T00:35:26;7.47;;;3.60;;
15899;SDS011;8048;50.644;6.184;2023-02-04T00:37:52;8.90;;;4.90;;
15899;SDS011;8048;50.644;6.184;2023-02-04T00:40:18;7.40;;;3.90;;
15899;SDS011;8048;50.644;6.184;2023-02-04T00:42:44;5.10;;;2.77;;
15899;SDS011;8048;50.644;6.184;2023-02-04T00:45:10;2.43;;;1.83;;
15899;SDS011;8048;50.644;6.184;2023-02-04T00:47:36;7.90;;;3.53;;
15899;SDS011;8048;50.644;6.184;2023-02-04T00:50:02;2.70;;;2.43;;
15899;SDS011;8048;50.644;6.184;2023-02-04T00:52:27;11.30;;;6.20;;
15899;SDS011;8048;50.644;6.184;2023-02-04T00:54:53;4.83;;;2.87;;
15899;SDS011;8048;50.644;6.184;2023-02-04T00:57:18;7.67;;;3.70;;
15899;SDS011;8048;50.644;6.184;2023-02-04T00:59:44;2.10;;;1.73;;
15899;SDS011;8048;50.644;6.184;2023-02-04T01:02:09;4.67;;;2.67;;
15899;SDS011;8048;50.644;6.184;2023-02-04T01:04:35;3.27;;;3.03;;
15899;SDS011;8048;50.644;6.184;2023-02-04T01:07:01;3.53;;;2.00;;
15899;SDS011;8048;50.644;6.184;2023-02-04T01:09:26;5.10;;;3.10;;
15899;SDS011;8048;50.644;6.184;2023-02-04T01:11:52;5.23;;;3.90;;
15899;SDS011;8048;50.644;6.184;2023-02-04T01:14:17;2.43;;;2.20;;
15899;SDS011;8048;50.644;6.184;2023-02-04T01:16:43;4.40;;;2.93;;
15899;SDS011;8048;50.644;6.184;2023-02-04T01:19:09;2.93;;;2.03;;
15899;SDS011;8048;50.644;6.184;2023-02-04T01:21:35;3.17;;;2.23;;
15899;SDS011;8048;50.644;6.184;2023-02-04T01:24:01;5.93;;;3.10;;
15899;SDS011;8048;50.644;6.184;2023-02-04T01:26:27;4.60;;;1.47;;
15899;SDS011;8048;50.644;6.184;2023-02-04T01:28:52;3.27;;;2.57;;
15899;SDS011;8048;50.644;6.184;2023-02-04T01:31:18;5.17;;;1.57;;
15899;SDS011;8048;50.644;6.184;2023-02-04T01:33:44;3.40;;;1.60;;
15899;SDS011;8048;50.644;6.184;2023-02-04T01:36:09;3.70;;;1.60;;
15899;SDS011;8048;50.644;6.184;2023-02-04T01:38:35;1.13;;;0.83;;
15899;SDS011;8048;50.644;6.184;2023-02-04T01:41:00;2.07;;;1.20;;
15899;SDS011;8048;50.644;6.184;2023-02-04T01:43:28;3.23;;;1.50;;
15899;SDS011;8048;50.644;6.184;2023-02-04T01:45:54;2.27;;;1.07;;
15899;SDS011;8048;50.644;6.184;2023-02-04T01:48:20;12.27;;;2.30;;
15899;SDS011;8048;50.644;6.184;2023-02-04T01:50:47;1.53;;;1.13;;
15899;SDS011;8048;50.644;6.184;2023-02-04T01:53:15;2.80;;;1.20;;
15899;SDS011;8048;50.644;6.184;2023-02-04T01:55:44;3.37;;;1.63;;
15899;SDS011;8048;50.644;6.184;2023-02-04T01:58:10;3.07;;;1.27;;
15899;SDS011;8048;50.644;6.184;2023-02-04T02:00:36;1.07;;;0.97;;
15899;SDS011;8048;50.644;6.184;2023-02-04T02:03:04;2.73;;;1.80;;
15899;SDS011;8048;50.644;6.184;2023-02-04T02:05:32;3.07;;;1.40;;
15899;SDS011;8048;50.644;6.184;2023-02-04T02:08:08;1.27;;;1.10;;
15899;SDS011;8048;50.644;6.184;2023-02-04T02:10:34;7.33;;;1.20;;
15899;SDS011;8048;50.644;6.184;2023-02-04T02:13:02;2.47;;;1.20;;
15899;SDS011;8048;50.644;6.184;2023-02-04T02:15:29;3.20;;;1.30;;
15899;SDS011;8048;50.644;6.184;2023-02-04T02:17:54;2.70;;;1.50;;
15899;SDS011;8048;50.644;6.184;2023-02-04T02:20:21;1.30;;;1.07;;
15899;SDS011;8048;50.644;6.184;2023-02-04T02:22:51;1.83;;;1.03;;
15899;SDS011;8048;50.644;6.184;2023-02-04T02:25:24;2.97;;;1.30;;
15899;SDS011;8048;50.644;6.184;2023-02-04T02:27:50;1.37;;;1.27;;
15899;SDS011;8048;50.644;6.184;2023-02-04T02:30:15;3.70;;;1.23;;
15899;SDS011;8048;50.644;6.184;2023-02-04T02:32:44;6.77;;;2.30;;
15899;SDS011;8048;50.644;6.184;2023-02-04T02:35:10;5.10;;;1.27;;
15899;SDS011;8048;50.644;6.184;2023-02-04T02:37:36;1.47;;;1.37;;
15899;SDS011;8048;50.644;6.184;2023-02-04T02:40:02;2.50;;;1.70;;
15899;SDS011;8048;50.644;6.184;2023-02-04T02:42:28;1.53;;;1.00;;
15899;SDS011;8048;50.644;6.184;2023-02-04T02:44:55;2.10;;;1.10;;
15899;SDS011;8048;50.644;6.184;2023-02-04T02:47:21;2.87;;;1.30;;
15899;SDS011;8048;50.644;6.184;2023-02-04T02:49:49;1.37;;;0.90;;
15899;SDS011;8048;50.644;6.184;2023-02-04T02:52:16;1.50;;;1.40;;
15899;SDS011;8048;50.644;6.184;2023-02-04T02:54:43;2.70;;;1.00;;
15899;SDS011;8048;50.644;6.184;2023-02-04T02:57:12;2.70;;;1.33;;
15899;SDS011;8048;50.644;6.184;2023-02-04T02:59:46;4.23;;;2.03;;
15899;SDS011;8048;50.644;6.184;2023-02-04T03:02:12;5.47;;;1.60;;
15899;SDS011;8048;50.644;6.184;2023-02-04T03:04:43;4.37;;;1.50;;
15899;SDS011;8048;50.644;6.184;2023-02-04T03:07:13;2.60;;;1.20;;
15899;SDS011;8048;50.644;6.184;2023-02-04T03:09:39;3.17;;;1.50;;
15899;SDS011;8048;50.644;6.184;2023-02-04T03:12:05;7.30;;;1.37;;
15899;SDS011;8048;50.644;6.184;2023-02-04T03:14:31;2.70;;;1.20;;
15899;SDS011;8048;50.644;6.184;2023-02-04T03:16:58;3.43;;;1.00;;
15899;SDS011;8048;50.644;6.184;2023-02-04T03:19:26;2.07;;;1.47;;
15899;SDS011;8048;50.644;6.184;2023-02-04T03:21:53;4.40;;;1.40;;
15899;SDS011;8048;50.644;6.184;2023-02-04T03:24:19;2.03;;;1.43;;
15899;SDS011;8048;50.644;6.184;2023-02-04T03:26:45;3.03;;;0.77;;
15899;SDS011;8048;50.644;6.184;2023-02-04T03:29:11;2.53;;;1.37;;
15899;SDS011;8048;50.644;6.184;2023-02-04T03:31:36;5.30;;;1.90;;
15899;SDS011;8048;50.644;6.184;2023-02-04T03:34:02;2.93;;;0.87;;
15899;SDS011;8048;50.644;6.184;2023-02-04T03:36:28;1.57;;;1.47;;
15899;SDS011;8048;50.644;6.184;2023-02-04T03:38:54;1.87;;;1.17;;
15899;SDS011;8048;50.644;6.184;2023-02-04T03:41:20;1.77;;;1.10;;
15899;SDS011;8048;50.644;6.184;2023-02-04T03:43:45;4.23;;;1.17;;
15899;SDS011;8048;50.644;6.184;2023-02-04T03:46:11;4.40;;;1.50;;
15899;SDS011;8048;50.644;6.184;2023-02-04T03:48:36;1.40;;;0.77;;
15899;SDS011;8048;50.644;6.184;2023-02-04T03:51:02;3.30;;;1.40;;
15899;SDS011;8048;50.644;6.184;2023-02-04T03:53:28;3.10;;;1.60;;
15899;SDS011;8048;50.644;6.184;2023-02-04T03:55:53;7.90;;;1.40;;
15899;SDS011;8048;50.644;6.184;2023-02-04T03:58:19;1.33;;;1.17;;
15899;SDS011;8048;50.644;6.184;2023-02-04T04:00:45;4.43;;;1.60;;
15899;SDS011;8048;50.644;6.184;2023-02-04T04:03:11;2.03;;;1.77;;
15899;SDS011;8048;50.644;6.184;2023-02-04T04:05:36;5.33;;;1.80;;
15899;SDS011;8048;50.644;6.184;2023-02-04T04:08:02;4.30;;;2.27;;
15899;SDS011;8048;50.644;6.184;2023-02-04T04:10:27;3.77;;;1.40;;
15899;SDS011;8048;50.644;6.184;2023-02-04T04:12:53;7.87;;;1.73;;
15899;SDS011;8048;50.644;6.184;2023-02-04T04:15:19;12.83;;;1.80;;
15899;SDS011;8048;50.644;6.184;2023-02-04T04:17:44;10.87;;;2.37;;
15899;SDS011;8048;50.644;6.184;2023-02-04T04:20:10;8.37;;;2.10;;
15899;SDS011;8048;50.644;6.184;2023-02-04T04:22:36;6.60;;;1.87;;
15899;SDS011;8048;50.644;6.184;2023-02-04T04:25:02;3.87;;;2.00;;
15899;SDS011;8048;50.644;6.184;2023-02-04T04:27:28;7.90;;;1.50;;
15899;SDS011;8048;50.644;6.184;2023-02-04T04:29:54;1.60;;;1.17;;
15899;SDS011;8048;50.644;6.184;2023-02-04T04:32:20;5.23;;;2.20;;
15899;SDS011;8048;50.644;6.184;2023-02-04T04:34:46;3.63;;;1.80;;
15899;SDS011;8048;50.644;6.184;2023-02-04T04:37:11;2.67;;;2.17;;
15899;SDS011;8048;50.644;6.184;2023-02-04T04:39:37;1.90;;;1.60;;
15899;SDS011;8048;50.644;6.184;2023-02-04T04:42:02;5.33;;;2.27;;
15899;SDS011;8048;50.644;6.184;2023-02-04T04:44:28;5.33;;;2.47;;
15899;SDS011;8048;50.644;6.184;2023-02-04T04:46:53;7.87;;;2.00;;
15899;SDS011;8048;50.644;6.184;2023-02-04T04:49:19;3.70;;;1.87;;
15899;SDS011;8048;50.644;6.184;2023-02-04T04:51:45;4.80;;;1.57;;
15899;SDS011;8048;50.644;6.184;2023-02-04T04:54:10;5.83;;;2.00;;
15899;SDS011;8048;50.644;6.184;2023-02-04T04:56:36;9.87;;;2.90;;
15899;SDS011;8048;50.644;6.184;2023-02-04T04:59:01;1.50;;;1.30;;
15899;SDS011;8048;50.644;6.184;2023-02-04T05:01:27;6.00;;;1.93;;
15899;SDS011;8048;50.644;6.184;2023-02-04T05:03:53;4.73;;;1.60;;
15899;SDS011;8048;50.644;6.184;2023-02-04T05:06:19;5.47;;;2.23;;
15899;SDS011;8048;50.644;6.184;2023-02-04T05:08:49;3.37;;;2.60;;
15899;SDS011;8048;50.644;6.184;2023-02-04T05:11:18;3.63;;;1.70;;
15899;SDS011;8048;50.644;6.184;2023-02-04T05:13:44;6.70;;;2.43;;
15899;SDS011;8048;50.644;6.184;2023-02-04T05:16:09;4.73;;;1.67;;
15899;SDS011;8048;50.644;6.184;2023-02-04T05:18:36;4.90;;;1.70;;
15899;SDS011;8048;50.644;6.184;2023-02-04T05:21:02;2.20;;;1.73;;
15899;SDS011;8048;50.644;6.184;2023-02-04T05:23:28;10.23;;;2.47;;
15899;SDS011;8048;50.644;6.184;2023-02-04T05:25:54;6.73;;;2.00;;
15899;SDS011;8048;50.644;6.184;2023-02-04T05:28:19;2.97;;;1.57;;
15899;SDS011;8048;50.644;6.184;2023-02-04T05:30:45;11.53;;;2.77;;
15899;SDS011;8048;50.644;6.184;2023-02-04T05:33:10;9.30;;;1.53;;
15899;SDS011;8048;50.644;6.184;2023-02-04T05:35:36;10.23;;;2.73;;
15899;SDS011;8048;50.644;6.184;2023-02-04T05:38:01;3.73;;;2.10;;
15899;SDS011;8048;50.644;6.184;2023-02-04T05:40:27;3.77;;;1.93;;
15899;SDS011;8048;50.644;6.184;2023-02-04T05:42:52;3.20;;;1.90;;
15899;SDS011;8048;50.644;6.184;2023-02-04T05:45:18;4.90;;;2.40;;
15899;SDS011;8048;50.644;6.184;2023-02-04T05:47:43;7.40;;;2.20;;
15899;SDS011;8048;50.644;6.184;2023-02-04T05:50:09;7.77;;;2.57;;
15899;SDS011;8048;50.644;6.184;2023-02-04T05:52:35;4.00;;;2.13;;
15899;SDS011;8048;50.644;6.184;2023-02-04T05:55:01;5.30;;;3.00;;
15899;SDS011;8048;50.644;6.184;2023-02-04T05:57:26;8.30;;;2.13;;
15899;SDS011;8048;50.644;6.184;2023-02-04T05:59:52;3.00;;;1.77;;
15899;SDS011;8048;50.644;6.184;2023-02-04T06:02:17;12.17;;;2.67;;
15899;SDS011;8048;50.644;6.184;2023-02-04T06:04:43;8.00;;;1.80;;
15899;SDS011;8048;50.644;6.184;2023-02-04T06:07:09;7.50;;;2.13;;
15899;SDS011;8048;50.644;6.184;2023-02-04T06:09:34;7.13;;;1.90;;
15899;SDS011;8048;50.644;6.184;2023-02-04T06:12:00;1.80;;;1.67;;
15899;SDS011;8048;50.644;6.184;2023-02-04T06:14:25;8.53;;;2.93;;
15899;SDS011;8048;50.644;6.184;2023-02-04T06:16:51;2.83;;;1.83;;
15899;SDS011;8048;50.644;6.184;2023-02-04T06:19:16;4.63;;;2.17;;
15899;SDS011;8048;50.644;6.184;2023-02-04T06:21:42;2.90;;;2.10;;
15899;SDS011;8048;50.644;6.184;2023-02-04T06:24:07;2.77;;;2.53;;
15899;SDS011;8048;50.644;6.184;2023-02-04T06:26:33;10.20;;;2.80;;
15899;SDS011;8048;50.644;6.184;2023-02-04T06:28:58;7.90;;;2.43;;
15899;SDS011;8048;50.644;6.184;2023-02-04T06:31:24;3.10;;;1.83;;
15899;SDS011;8048;50.644;6.184;2023-02-04T06:33:49;10.70;;;3.03;;
15899;SDS011;8048;50.644;6.184;2023-02-04T06:36:15;4.53;;;2.47;;
15899;SDS011;8048;50.644;6.184;2023-02-04T06:38:40;7.33;;;3.03;;
15899;SDS011;8048;50.644;6.184;2023-02-04T06:41:06;7.10;;;3.23;;
15899;SDS011;8048;50.644;6.184;2023-02-04T06:43:31;16.60;;;3.30;;
15899;SDS011;8048;50.644;6.184;2023-02-04T06:45:57;4.57;;;2.20;;
15899;SDS011;8048;50.644;6.184;2023-02-04T06:48:22;10.30;;;3.00;;
15899;SDS011;8048;50.644;6.184;2023-02-04T06:50:48;10.00;;;3.00;;
15899;SDS011;8048;50.644;6.184;2023-02-04T06:53:14;4.17;;;3.00;;
15899;SDS011;8048;50.644;6.184;2023-02-04T06:55:39;8.60;;;3.17;;
15899;SDS011;8048;50.644;6.184;2023-02-04T06:58:05;6.63;;;2.40;;
15899;SDS011;8048;50.644;6.184;2023-02-04T07:00:30;7.33;;;3.30;;
15899;SDS011;8048;50.644;6.184;2023-02-04T07:02:56;12.33;;;3.57;;
15899;SDS011;8048;50.644;6.184;2023-02-04T07:05:23;8.60;;;4.17;;
15899;SDS011;8048;50.644;6.184;2023-02-04T07:07:49;5.73;;;4.50;;
15899;SDS011;8048;50.644;6.184;2023-02-04T07:10:16;12.47;;;4.20;;
15899;SDS011;8048;50.644;6.184;2023-02-04T07:12:42;11.63;;;5.43;;
15899;SDS011;8048;50.644;6.184;2023-02-04T07:15:08;8.63;;;4.27;;
15899;SDS011;8048;50.644;6.184;2023-02-04T07:17:34;8.43;;;4.73;;
15899;SDS011;8048;50.644;6.184;2023-02-04T07:19:59;7.67;;;4.23;;
15899;SDS011;8048;50.644;6.184;2023-02-04T07:22:25;6.07;;;4.10;;
15899;SDS011;8048;50.644;6.184;2023-02-04T07:24:50;11.20;;;4.60;;
15899;SDS011;8048;50.644;6.184;2023-02-04T07:27:16;6.77;;;4.33;;
15899;SDS011;8048;50.644;6.184;2023-02-04T07:29:42;6.53;;;4.80;;
15899;SDS011;8048;50.644;6.184;2023-02-04T07:32:07;11.20;;;5.53;;
15899;SDS011;8048;50.644;6.184;2023-02-04T07:34:33;8.20;;;4.23;;
15899;SDS011;8048;50.644;6.184;2023-02-04T07:36:58;9.80;;;4.33;;
15899;SDS011;8048;50.644;6.184;2023-02-04T07:39:24;9.13;;;4.60;;
15899;SDS011;8048;50.644;6.184;2023-02-04T07:41:49;13.73;;;4.43;;
15899;SDS011;8048;50.644;6.184;2023-02-04T07:44:15;8.53;;;4.60;;
15899;SDS011;8048;50.644;6.184;2023-02-04T07:46:40;11.40;;;4.33;;
15899;SDS011;8048;50.644;6.184;2023-02-04T07:49:06;10.07;;;4.87;;
15899;SDS011;8048;50.644;6.184;2023-02-04T07:51:31;9.03;;;4.50;;
15899;SDS011;8048;50.644;6.184;2023-02-04T07:53:57;9.37;;;6.07;;
15899;SDS011;8048;50.644;6.184;2023-02-04T07:56:22;7.10;;;5.10;;
15899;SDS011;8048;50.644;6.184;2023-02-04T07:58:48;11.77;;;5.03;;
15899;SDS011;8048;50.644;6.184;2023-02-04T08:01:13;17.07;;;11.33;;
15899;SDS011;8048;50.644;6.184;2023-02-04T08:03:39;8.10;;;6.70;;
15899;SDS011;8048;50.644;6.184;2023-02-04T08:06:06;8.27;;;4.70;;
15899;SDS011;8048;50.644;6.184;2023-02-04T08:08:32;8.77;;;5.83;;
15899;SDS011;8048;50.644;6.184;2023-02-04T08:10:57;9.23;;;5.20;;
15899;SDS011;8048;50.644;6.184;2023-02-04T08:13:23;11.73;;;6.47;;
15899;SDS011;8048;50.644;6.184;2023-02-04T08:15:49;14.30;;;6.60;;
15899;SDS011;8048;50.644;6.184;2023-02-04T08:18:15;10.70;;;6.20;;
15899;SDS011;8048;50.644;6.184;2023-02-04T08:20:40;11.13;;;6.00;;
15899;SDS011;8048;50.644;6.184;2023-02-04T08:23:06;14.63;;;5.97;;
15899;SDS011;8048;50.644;6.184;2023-02-04T08:25:32;14.23;;;8.30;;
15899;SDS011;8048;50.644;6.184;2023-02-04T08:27:58;15.50;;;8.10;;
15899;SDS011;8048;50.644;6.184;2023-02-04T08:30:23;14.30;;;7.07;;
15899;SDS011;8048;50.644;6.184;2023-02-04T08:32:49;17.97;;;8.00;;
15899;SDS011;8048;50.644;6.184;2023-02-04T08:35:14;17.80;;;8.07;;
15899;SDS011;8048;50.644;6.184;2023-02-04T08:37:40;13.27;;;6.40;;
15899;SDS011;8048;50.644;6.184;2023-02-04T08:40:06;14.83;;;9.07;;
15899;SDS011;8048;50.644;6.184;2023-02-04T08:42:31;15.10;;;6.97;;
15899;SDS011;8048;50.644;6.184;2023-02-04T08:44:58;11.00;;;5.90;;
15899;SDS011;8048;50.644;6.184;2023-02-04T08:47:24;11.17;;;5.87;;
15899;SDS011;8048;50.644;6.184;2023-02-04T08:49:50;13.90;;;6.13;;
15899;SDS011;8048;50.644;6.184;2023-02-04T08:52:15;22.90;;;6.83;;
15899;SDS011;8048;50.644;6.184;2023-02-04T08:54:41;15.27;;;6.97;;
15899;SDS011;8048;50.644;6.184;2023-02-04T08:57:06;16.13;;;6.87;;
15899;SDS011;8048;50.644;6.184;2023-02-04T08:59:32;16.63;;;8.00;;
15899;SDS011;8048;50.644;6.184;2023-02-04T09:01:57;17.57;;;8.40;;
15899;SDS011;8048;50.644;6.184;2023-02-04T09:04:23;13.57;;;6.90;;
15899;SDS011;8048;50.644;6.184;2023-02-04T09:06:49;20.43;;;7.70;;
15899;SDS011;8048;50.644;6.184;2023-02-04T09:09:15;13.97;;;7.90;;
15899;SDS011;8048;50.644;6.184;2023-02-04T09:11:41;14.63;;;6.87;;
15899;SDS011;8048;50.644;6.184;2023-02-04T09:14:07;14.93;;;6.93;;
15899;SDS011;8048;50.644;6.184;2023-02-04T09:16:33;17.53;;;7.67;;
15899;SDS011;8048;50.644;6.184;2023-02-04T09:18:59;9.77;;;5.80;;
15899;SDS011;8048;50.644;6.184;2023-02-04T09:21:26;15.87;;;6.67;;
15899;SDS011;8048;50.644;6.184;2023-02-04T09:23:52;12.50;;;6.20;;
15899;SDS011;8048;50.644;6.184;2023-02-04T09:26:18;13.93;;;5.40;;
15899;SDS011;8048;50.644;6.184;2023-02-04T09:28:43;9.00;;;5.80;;
15899;SDS011;8048;50.644;6.184;2023-02-04T09:31:09;12.50;;;6.10;;
15899;SDS011;8048;50.644;6.184;2023-02-04T09:33:35;13.13;;;5.80;;
15899;SDS011;8048;50.644;6.184;2023-02-04T09:36:01;12.50;;;5.03;;
15899;SDS011;8048;50.644;6.184;2023-02-04T09:38:27;10.03;;;5.40;;
15899;SDS011;8048;50.644;6.184;2023-02-04T09:40:53;14.43;;;6.27;;
15899;SDS011;8048;50.644;6.184;2023-02-04T09:43:21;8.10;;;5.27;;
15899;SDS011;8048;50.644;6.184;2023-02-04T09:45:49;7.73;;;5.97;;
15899;SDS011;8048;50.644;6.184;2023-02-04T09:48:16;11.37;;;5.70;;
15899;SDS011;8048;50.644;6.184;2023-02-04T09:50:42;12.60;;;5.40;;
15899;SDS011;8048;50.644;6.184;2023-02-04T09:53:10;10.83;;;6.10;;
15899;SDS011;8048;50.644;6.184;2023-02-04T09:55:42;10.17;;;6.10;;
15899;SDS011;8048;50.644;6.184;2023-02-04T09:58:10;7.23;;;5.30;;
15899;SDS011;8048;50.644;6.184;2023-02-04T10:00:41;10.87;;;4.67;;
15899;SDS011;8048;50.644;6.184;2023-02-04T10:03:10;11.40;;;4.30;;
15899;SDS011;8048;50.644;6.184;2023-02-04T10:05:39;5.70;;;3.70;;
15899;SDS011;8048;50.644;6.184;2023-02-04T10:08:05;8.40;;;4.07;;
15899;SDS011;8048;50.644;6.184;2023-02-04T10:10:31;8.90;;;4.63;;
15899;SDS011;8048;50.644;6.184;2023-02-04T10:12:57;13.40;;;4.93;;
15899;SDS011;8048;50.644;6.184;2023-02-04T10:15:26;9.07;;;4.40;;
15899;SDS011;8048;50.644;6.184;2023-02-04T10:17:57;11.80;;;5.20;;
15899;SDS011;8048;50.644;6.184;2023-02-04T10:20:26;13.03;;;4.93;;
15899;SDS011;8048;50.644;6.184;2023-02-04T10:22:53;12.70;;;4.77;;
15899;SDS011;8048;50.644;6.184;2023-02-04T10:25:21;10.33;;;4.77;;
15899;SDS011;8048;50.644;6.184;2023-02-04T10:30:21;9.77;;;4.60;;
15899;SDS011;8048;50.644;6.184;2023-02-04T10:33:12;12.07;;;4.73;;
15899;SDS011;8048;50.644;6.184;2023-02-04T10:35:51;12.07;;;4.17;;
15899;SDS011;8048;50.644;6.184;2023-02-04T10:38:19;7.93;;;3.53;;
15899;SDS011;8048;50.644;6.184;2023-02-04T10:40:45;12.00;;;4.23;;
15899;SDS011;8048;50.644;6.184;2023-02-04T10:45:45;7.30;;;4.10;;
15899;SDS011;8048;50.644;6.184;2023-02-04T10:48:16;12.57;;;5.37;;
15899;SDS011;8048;50.644;6.184;2023-02-04T10:50:43;6.93;;;3.77;;
15899;SDS011;8048;50.644;6.184;2023-02-04T10:53:11;12.10;;;5.37;;
15899;SDS011;8048;50.644;6.184;2023-02-04T10:56:01;10.93;;;4.00;;
15899;SDS011;8048;50.644;6.184;2023-02-04T10:58:29;10.63;;;4.73;;
15899;SDS011;8048;50.644;6.184;2023-02-04T11:00:55;9.97;;;4.73;;
15899;SDS011;8048;50.644;6.184;2023-02-04T11:03:22;6.07;;;4.03;;
15899;SDS011;8048;50.644;6.184;2023-02-04T11:05:52;12.93;;;4.97;;
15899;SDS011;8048;50.644;6.184;2023-02-04T11:11:04;5.57;;;3.27;;
15899;SDS011;8048;50.644;6.184;2023-02-04T11:21:19;8.27;;;3.07;;
15899;SDS011;8048;50.644;6.184;2023-02-04T11:24:03;5.40;;;3.23;;
15899;SDS011;8048;50.644;6.184;2023-02-04T11:31:42;11.13;;;3.43;;
15899;SDS011;8048;50.644;6.184;2023-02-04T11:39:36;8.90;;;3.10;;
15899;SDS011;8048;50.644;6.184;2023-02-04T11:42:03;4.40;;;3.33;;
15899;SDS011;8048;50.644;6.184;2023-02-04T11:44:30;6.17;;;3.57;;
15899;SDS011;8048;50.644;6.184;2023-02-04T11:46:57;10.80;;;2.93;;
15899;SDS011;8048;50.644;6.184;2023-02-04T11:49:25;8.03;;;3.87;;
15899;SDS011;8048;50.644;6.184;2023-02-04T11:52:01;8.83;;;4.50;;
15899;SDS011;8048;50.644;6.184;2023-02-04T11:54:32;13.83;;;4.63;;
15899;SDS011;8048;50.644;6.184;2023-02-04T11:56:59;7.10;;;2.80;;
15899;SDS011;8048;50.644;6.184;2023-02-04T11:59:25;6.93;;;3.60;;
15899;SDS011;8048;50.644;6.184;2023-02-04T12:01:50;7.00;;;3.10;;
15899;SDS011;8048;50.644;6.184;2023-02-04T12:04:27;9.70;;;4.20;;
15899;SDS011;8048;50.644;6.184;2023-02-04T12:07:02;7.00;;;3.83;;
15899;SDS011;8048;50.644;6.184;2023-02-04T12:09:28;12.03;;;5.50;;
15899;SDS011;8048;50.644;6.184;2023-02-04T12:11:56;6.23;;;3.67;;
15899;SDS011;8048;50.644;6.184;2023-02-04T12:14:30;11.97;;;4.73;;
15899;SDS011;8048;50.644;6.184;2023-02-04T12:17:16;8.23;;;3.03;;
15899;SDS011;8048;50.644;6.184;2023-02-04T12:19:43;4.97;;;3.50;;
15899;SDS011;8048;50.644;6.184;2023-02-04T12:22:08;7.53;;;3.80;;
15899;SDS011;8048;50.644;6.184;2023-02-04T12:24:34;7.93;;;4.30;;
15899;SDS011;8048;50.644;6.184;2023-02-04T12:26:59;10.47;;;5.53;;
15899;SDS011;8048;50.644;6.184;2023-02-04T12:29:25;10.10;;;4.37;;
15899;SDS011;8048;50.644;6.184;2023-02-04T12:31:50;8.93;;;3.50;;
15899;SDS011;8048;50.644;6.184;2023-02-04T12:34:16;11.70;;;4.90;;
15899;SDS011;8048;50.644;6.184;2023-02-04T12:36:42;21.23;;;4.00;;
15899;SDS011;8048;50.644;6.184;2023-02-04T12:39:07;8.57;;;4.70;;
15899;SDS011;8048;50.644;6.184;2023-02-04T12:41:34;7.43;;;3.53;;
15899;SDS011;8048;50.644;6.184;2023-02-04T12:44:00;7.67;;;2.97;;
15899;SDS011;8048;50.644;6.184;2023-02-04T12:46:26;16.47;;;4.13;;
15899;SDS011;8048;50.644;6.184;2023-02-04T12:48:52;11.93;;;4.40;;
15899;SDS011;8048;50.644;6.184;2023-02-04T12:51:18;9.70;;;4.33;;
15899;SDS011;8048;50.644;6.184;2023-02-04T12:53:45;5.30;;;3.00;;
15899;SDS011;8048;50.644;6.184;2023-02-04T12:56:12;8.23;;;4.67;;
15899;SDS011;8048;50.644;6.184;2023-02-04T12:58:38;16.07;;;6.90;;
15899;SDS011;8048;50.644;6.184;2023-02-04T13:01:03;10.77;;;5.70;;
15899;SDS011;8048;50.644;6.184;2023-02-04T13:03:29;15.57;;;6.13;;
15899;SDS011;8048;50.644;6.184;2023-02-04T13:05:54;11.50;;;4.07;;
15899;SDS011;8048;50.644;6.184;2023-02-04T13:08:20;14.37;;;5.50;;
15899;SDS011;8048;50.644;6.184;2023-02-04T13:10:46;9.87;;;5.47;;
15899;SDS011;8048;50.644;6.184;2023-02-04T13:13:16;5.60;;;3.17;;
15899;SDS011;8048;50.644;6.184;2023-02-04T13:15:45;11.57;;;3.60;;
15899;SDS011;8048;50.644;6.184;2023-02-04T13:18:11;13.63;;;3.90;;
15899;SDS011;8048;50.644;6.184;2023-02-04T13:20:37;12.13;;;5.10;;
15899;SDS011;8048;50.644;6.184;2023-02-04T13:23:02;6.53;;;3.80;;
15899;SDS011;8048;50.644;6.184;2023-02-04T13:25:28;7.50;;;3.60;;
15899;SDS011;8048;50.644;6.184;2023-02-04T13:27:53;8.90;;;3.60;;
15899;SDS011;8048;50.644;6.184;2023-02-04T13:30:19;7.40;;;4.53;;
15899;SDS011;8048;50.644;6.184;2023-02-04T13:32:45;5.40;;;2.60;;
15899;SDS011;8048;50.644;6.184;2023-02-04T13:35:10;5.40;;;3.47;;
15899;SDS011;8048;50.644;6.184;2023-02-04T13:37:36;5.83;;;4.27;;
15899;SDS011;8048;50.644;6.184;2023-02-04T13:40:02;12.77;;;4.90;;
15899;SDS011;8048;50.644;6.184;2023-02-04T13:42:29;10.03;;;5.20;;
15899;SDS011;8048;50.644;6.184;2023-02-04T13:44:54;7.83;;;3.50;;
15899;SDS011;8048;50.644;6.184;2023-02-04T13:47:20;7.47;;;3.93;;
15899;SDS011;8048;50.644;6.184;2023-02-04T13:49:45;12.27;;;3.90;;
15899;SDS011;8048;50.644;6.184;2023-02-04T13:52:11;12.90;;;4.60;;
15899;SDS011;8048;50.644;6.184;2023-02-04T13:54:36;9.13;;;4.20;;
15899;SDS011;8048;50.644;6.184;2023-02-04T13:57:02;11.00;;;3.23;;
15899;SDS011;8048;50.644;6.184;2023-02-04T13:59:29;4.70;;;3.23;;
15899;SDS011;8048;50.644;6.184;2023-02-04T14:01:54;5.70;;;3.80;;
15899;SDS011;8048;50.644;6.184;2023-02-04T14:04:20;9.00;;;4.37;;
15899;SDS011;8048;50.644;6.184;2023-02-04T14:06:45;12.47;;;4.13;;
15899;SDS011;8048;50.644;6.184;2023-02-04T14:09:11;10.60;;;4.50;;
15899;SDS011;8048;50.644;6.184;2023-02-04T14:11:37;3.50;;;2.60;;
15899;SDS011;8048;50.644;6.184;2023-02-04T14:14:02;12.50;;;5.53;;
15899;SDS011;8048;50.644;6.184;2023-02-04T14:16:28;7.83;;;4.50;;
15899;SDS011;8048;50.644;6.184;2023-02-04T14:18:54;8.07;;;4.10;;
15899;SDS011;8048;50.644;6.184;2023-02-04T14:21:19;8.60;;;4.00;;
15899;SDS011;8048;50.644;6.184;2023-02-04T14:23:45;8.63;;;5.90;;
15899;SDS011;8048;50.644;6.184;2023-02-04T14:26:11;9.27;;;3.80;;
15899;SDS011;8048;50.644;6.184;2023-02-04T14:28:36;16.93;;;6.20;;
15899;SDS011;8048;50.644;6.184;2023-02-04T14:31:02;12.27;;;6.07;;
15899;SDS011;8048;50.644;6.184;2023-02-04T14:33:27;9.00;;;4.60;;
15899;SDS011;8048;50.644;6.184;2023-02-04T14:35:53;12.50;;;5.63;;
15899;SDS011;8048;50.644;6.184;2023-02-04T14:38:18;8.10;;;4.43;;
15899;SDS011;8048;50.644;6.184;2023-02-04T14:40:44;14.00;;;4.57;;
15899;SDS011;8048;50.644;6.184;2023-02-04T14:43:09;8.23;;;5.07;;
15899;SDS011;8048;50.644;6.184;2023-02-04T14:45:36;8.83;;;3.37;;
15899;SDS011;8048;50.644;6.184;2023-02-04T14:48:02;8.93;;;3.73;;
15899;SDS011;8048;50.644;6.184;2023-02-04T14:50:28;10.57;;;4.83;;
15899;SDS011;8048;50.644;6.184;2023-02-04T14:52:54;9.53;;;4.63;;
15899;SDS011;8048;50.644;6.184;2023-02-04T14:55:21;15.63;;;5.20;;
15899;SDS011;8048;50.644;6.184;2023-02-04T14:57:47;12.17;;;4.70;;
15899;SDS011;8048;50.644;6.184;2023-02-04T15:00:13;10.87;;;4.60;;
15899;SDS011;8048;50.644;6.184;2023-02-04T15:02:39;8.70;;;4.43;;
15899;SDS011;8048;50.644;6.184;2023-02-04T15:05:06;7.20;;;3.77;;
15899;SDS011;8048;50.644;6.184;2023-02-04T15:07:32;10.83;;;4.43;;
15899;SDS011;8048;50.644;6.184;2023-02-04T15:09:58;11.03;;;4.77;;
15899;SDS011;8048;50.644;6.184;2023-02-04T15:12:23;10.00;;;4.30;;
15899;SDS011;8048;50.644;6.184;2023-02-04T15:14:49;5.57;;;3.40;;
15899;SDS011;8048;50.644;6.184;2023-02-04T15:17:14;10.40;;;4.77;;
15899;SDS011;8048;50.644;6.184;2023-02-04T15:19:40;8.30;;;4.67;;